sensor_id;sensor_type;location;lat;lon;timestamp;temperature;humidity
18297;DHT22;18066;52.106;5.534;2022-12-07T00:01:48;4.50;99.90
18297;DHT22;18066;52.106;5.534;2022-12-07T00:04:19;4.50;99.90
18297;DHT22;18066;52.106;5.534;2022-12-07T00:06:50;4.50;99.90
18297;DHT22;18066;52.106;5.534;2022-12-07T00:09:17;4.50;99.90
18297;DHT22;18066;52.106;5.534;2022-12-07T00:11:48;4.50;99.90
18297;DHT22;18066;52.106;5.534;2022-12-07T00:14:15;4.50;99.90
18297;DHT22;18066;52.106;5.534;2022-12-07T00:16:43;4.50;99.90
18297;DHT22;18066;52.106;5.534;2022-12-07T00:19:11;4.40;99.90
18297;DHT22;18066;52.106;5.534;2022-12-07T00:21:38;4.50;99.90
18297;DHT22;18066;52.106;5.534;2022-12-07T00:24:06;4.30;99.90
18297;DHT22;18066;52.106;5.534;2022-12-07T00:26:35;4.30;99.90
18297;DHT22;18066;52.106;5.534;2022-12-07T00:29:05;4.20;99.90
18297;DHT22;18066;52.106;5.534;2022-12-07T00:31:34;4.10;99.90
18297;DHT22;18066;52.106;5.534;2022-12-07T00:34:04;4.10;99.90
18297;DHT22;18066;52.106;5.534;2022-12-07T00:36:31;4.00;99.90
18297;DHT22;18066;52.106;5.534;2022-12-07T00:38:59;3.90;99.90
18297;DHT22;18066;52.106;5.534;2022-12-07T00:41:27;3.90;99.90
18297;DHT22;18066;52.106;5.534;2022-12-07T00:43:54;4.00;99.90
18297;DHT22;18066;52.106;5.534;2022-12-07T00:46:23;4.00;99.90
18297;DHT22;18066;52.106;5.534;2022-12-07T00:48:51;4.00;99.90
18297;DHT22;18066;52.106;5.534;2022-12-07T00:51:20;3.90;99.90
18297;DHT22;18066;52.106;5.534;2022-12-07T00:53:48;4.00;99.90
18297;DHT22;18066;52.106;5.534;2022-12-07T00:56:16;4.00;99.90
18297;DHT22;18066;52.106;5.534;2022-12-07T00:58:43;4.00;99.90
18297;DHT22;18066;52.106;5.534;2022-12-07T01:01:10;4.00;99.90
18297;DHT22;18066;52.106;5.534;2022-12-07T01:03:38;4.00;99.90
18297;DHT22;18066;52.106;5.534;2022-12-07T01:06:05;3.90;99.90
18297;DHT22;18066;52.106;5.534;2022-12-07T01:08:34;3.90;99.90
18297;DHT22;18066;52.106;5.534;2022-12-07T01:11:03;3.90;99.90
18297;DHT22;18066;52.106;5.534;2022-12-07T01:13:30;3.90;99.90
18297;DHT22;18066;52.106;5.534;2022-12-07T01:15:59;3.90;99.90
18297;DHT22;18066;52.106;5.534;2022-12-07T01:18:26;4.00;99.90
18297;DHT22;18066;52.106;5.534;2022-12-07T01:21:03;4.00;99.90
18297;DHT22;18066;52.106;5.534;2022-12-07T01:23:31;4.00;99.90
18297;DHT22;18066;52.106;5.534;2022-12-07T01:26:00;4.00;99.90
18297;DHT22;18066;52.106;5.534;2022-12-07T01:28:27;3.90;99.90
18297;DHT22;18066;52.106;5.534;2022-12-07T01:31:01;3.90;99.90
18297;DHT22;18066;52.106;5.534;2022-12-07T01:33:30;3.80;99.90
18297;DHT22;18066;52.106;5.534;2022-12-07T01:36:02;3.70;99.90
18297;DHT22;18066;52.106;5.534;2022-12-07T01:38:30;3.70;99.90
18297;DHT22;18066;52.106;5.534;2022-12-07T01:40:57;3.80;99.90
18297;DHT22;18066;52.106;5.534;2022-12-07T01:43:27;3.70;99.90
18297;DHT22;18066;52.106;5.534;2022-12-07T01:45:54;3.70;99.90
18297;DHT22;18066;52.106;5.534;2022-12-07T01:48:24;3.70;99.90
18297;DHT22;18066;52.106;5.534;2022-12-07T01:50:53;3.70;99.90
18297;DHT22;18066;52.106;5.534;2022-12-07T01:53:26;3.70;99.90
18297;DHT22;18066;52.106;5.534;2022-12-07T01:55:56;3.70;99.90
18297;DHT22;18066;52.106;5.534;2022-12-07T01:58:23;3.80;99.90
18297;DHT22;18066;52.106;5.534;2022-12-07T02:00:51;3.80;99.90
18297;DHT22;18066;52.106;5.534;2022-12-07T02:03:21;3.80;99.90
18297;DHT22;18066;52.106;5.534;2022-12-07T02:05:49;3.80;99.90
18297;DHT22;18066;52.106;5.534;2022-12-07T02:08:16;3.90;99.90
18297;DHT22;18066;52.106;5.534;2022-12-07T02:10:45;4.00;99.90
18297;DHT22;18066;52.106;5.534;2022-12-07T02:13:14;4.10;99.90
18297;DHT22;18066;52.106;5.534;2022-12-07T02:15:54;4.10;99.90
18297;DHT22;18066;52.106;5.534;2022-12-07T02:18:28;4.10;99.90
18297;DHT22;18066;52.106;5.534;2022-12-07T02:21:03;4.10;99.90
18297;DHT22;18066;52.106;5.534;2022-12-07T02:26:58;3.90;99.90
18297;DHT22;18066;52.106;5.534;2022-12-07T02:29:31;3.90;99.90
18297;DHT22;18066;52.106;5.534;2022-12-07T02:32:06;3.90;99.90
18297;DHT22;18066;52.106;5.534;2022-12-07T02:34:42;3.80;99.90
18297;DHT22;18066;52.106;5.534;2022-12-07T02:37:17;3.80;99.90
18297;DHT22;18066;52.106;5.534;2022-12-07T02:39:51;3.80;99.90
18297;DHT22;18066;52.106;5.534;2022-12-07T02:42:23;3.80;99.90
18297;DHT22;18066;52.106;5.534;2022-12-07T02:44:53;3.80;99.90
18297;DHT22;18066;52.106;5.534;2022-12-07T02:47:21;3.80;99.90
18297;DHT22;18066;52.106;5.534;2022-12-07T02:49:50;3.90;99.90
18297;DHT22;18066;52.106;5.534;2022-12-07T02:52:18;3.90;99.90
18297;DHT22;18066;52.106;5.534;2022-12-07T02:54:44;3.90;99.90
18297;DHT22;18066;52.106;5.534;2022-12-07T02:57:30;4.00;99.90
18297;DHT22;18066;52.106;5.534;2022-12-07T03:00:07;4.00;99.90
18297;DHT22;18066;52.106;5.534;2022-12-07T03:02:41;4.00;99.90
18297;DHT22;18066;52.106;5.534;2022-12-07T03:05:26;4.00;99.90
18297;DHT22;18066;52.106;5.534;2022-12-07T03:08:02;4.00;99.90
18297;DHT22;18066;52.106;5.534;2022-12-07T03:10:36;4.00;99.90
18297;DHT22;18066;52.106;5.534;2022-12-07T03:13:10;4.00;99.90
18297;DHT22;18066;52.106;5.534;2022-12-07T03:15:45;4.00;99.90
18297;DHT22;18066;52.106;5.534;2022-12-07T03:18:15;4.00;99.90
18297;DHT22;18066;52.106;5.534;2022-12-07T03:20:44;4.00;99.90
18297;DHT22;18066;52.106;5.534;2022-12-07T03:23:12;4.00;99.90
18297;DHT22;18066;52.106;5.534;2022-12-07T03:25:42;4.00;99.90
18297;DHT22;18066;52.106;5.534;2022-12-07T03:28:14;4.00;99.90
18297;DHT22;18066;52.106;5.534;2022-12-07T03:30:47;4.00;99.90
18297;DHT22;18066;52.106;5.534;2022-12-07T03:33:18;4.00;99.90
18297;DHT22;18066;52.106;5.534;2022-12-07T03:35:50;4.00;99.90
18297;DHT22;18066;52.106;5.534;2022-12-07T03:38:21;4.10;99.90
18297;DHT22;18066;52.106;5.534;2022-12-07T03:40:55;4.10;99.90
18297;DHT22;18066;52.106;5.534;2022-12-07T03:43:24;4.10;99.90
18297;DHT22;18066;52.106;5.534;2022-12-07T03:46:00;4.10;99.90
18297;DHT22;18066;52.106;5.534;2022-12-07T03:48:35;4.10;99.90
18297;DHT22;18066;52.106;5.534;2022-12-07T03:51:08;4.00;99.90
18297;DHT22;18066;52.106;5.534;2022-12-07T03:53:40;4.10;99.90
18297;DHT22;18066;52.106;5.534;2022-12-07T03:56:10;4.10;99.90
18297;DHT22;18066;52.106;5.534;2022-12-07T03:58:38;4.10;99.90
18297;DHT22;18066;52.106;5.534;2022-12-07T04:01:06;4.10;99.90
18297;DHT22;18066;52.106;5.534;2022-12-07T04:03:33;4.10;99.90
18297;DHT22;18066;52.106;5.534;2022-12-07T04:06:00;4.00;99.90
18297;DHT22;18066;52.106;5.534;2022-12-07T04:08:27;4.10;99.90
18297;DHT22;18066;52.106;5.534;2022-12-07T04:10:54;4.10;99.90
18297;DHT22;18066;52.106;5.534;2022-12-07T04:13:21;4.00;99.90
18297;DHT22;18066;52.106;5.534;2022-12-07T04:15:48;4.10;99.90
18297;DHT22;18066;52.106;5.534;2022-12-07T04:18:16;4.10;99.90
18297;DHT22;18066;52.106;5.534;2022-12-07T04:20:43;4.10;99.90
18297;DHT22;18066;52.106;5.534;2022-12-07T04:23:09;4.20;99.90
18297;DHT22;18066;52.106;5.534;2022-12-07T04:25:36;4.20;99.90
18297;DHT22;18066;52.106;5.534;2022-12-07T04:28:03;4.30;99.90
18297;DHT22;18066;52.106;5.534;2022-12-07T04:30:30;4.30;99.90
18297;DHT22;18066;52.106;5.534;2022-12-07T04:32:57;4.30;99.90
18297;DHT22;18066;52.106;5.534;2022-12-07T04:35:25;4.30;99.90
18297;DHT22;18066;52.106;5.534;2022-12-07T04:37:52;4.30;99.90
18297;DHT22;18066;52.106;5.534;2022-12-07T04:40:18;4.30;99.90
18297;DHT22;18066;52.106;5.534;2022-12-07T04:42:45;4.20;99.90
18297;DHT22;18066;52.106;5.534;2022-12-07T04:45:12;4.20;99.90
18297;DHT22;18066;52.106;5.534;2022-12-07T04:47:38;4.20;99.90
18297;DHT22;18066;52.106;5.534;2022-12-07T04:50:06;4.10;99.90
18297;DHT22;18066;52.106;5.534;2022-12-07T04:52:34;4.10;99.90
18297;DHT22;18066;52.106;5.534;2022-12-07T04:55:01;4.10;99.90
18297;DHT22;18066;52.106;5.534;2022-12-07T04:57:28;4.10;99.90
18297;DHT22;18066;52.106;5.534;2022-12-07T04:59:55;4.10;99.90
18297;DHT22;18066;52.106;5.534;2022-12-07T05:02:21;4.10;99.90
18297;DHT22;18066;52.106;5.534;2022-12-07T05:04:48;4.10;99.90
18297;DHT22;18066;52.106;5.534;2022-12-07T05:07:15;4.10;99.90
18297;DHT22;18066;52.106;5.534;2022-12-07T05:09:43;4.00;99.90
18297;DHT22;18066;52.106;5.534;2022-12-07T05:12:10;4.00;99.90
18297;DHT22;18066;52.106;5.534;2022-12-07T05:14:36;4.00;99.90
18297;DHT22;18066;52.106;5.534;2022-12-07T05:17:03;4.00;99.90
18297;DHT22;18066;52.106;5.534;2022-12-07T05:19:30;3.90;99.90
18297;DHT22;18066;52.106;5.534;2022-12-07T05:21:57;3.90;99.90
18297;DHT22;18066;52.106;5.534;2022-12-07T05:24:24;3.80;99.90
18297;DHT22;18066;52.106;5.534;2022-12-07T05:26:52;3.80;99.90
18297;DHT22;18066;52.106;5.534;2022-12-07T05:29:18;3.90;99.90
18297;DHT22;18066;52.106;5.534;2022-12-07T05:31:45;3.80;99.90
18297;DHT22;18066;52.106;5.534;2022-12-07T05:34:12;3.70;99.90
18297;DHT22;18066;52.106;5.534;2022-12-07T05:36:39;3.70;99.90
18297;DHT22;18066;52.106;5.534;2022-12-07T05:39:06;3.70;99.90
18297;DHT22;18066;52.106;5.534;2022-12-07T05:41:33;3.70;99.90
18297;DHT22;18066;52.106;5.534;2022-12-07T05:44:19;3.70;99.90
18297;DHT22;18066;52.106;5.534;2022-12-07T05:46:46;3.80;99.90
18297;DHT22;18066;52.106;5.534;2022-12-07T05:49:12;3.90;99.90
18297;DHT22;18066;52.106;5.534;2022-12-07T05:51:40;3.80;99.90
18297;DHT22;18066;52.106;5.534;2022-12-07T05:54:07;3.80;99.90
18297;DHT22;18066;52.106;5.534;2022-12-07T05:56:34;3.80;99.90
18297;DHT22;18066;52.106;5.534;2022-12-07T05:59:00;3.90;99.90
18297;DHT22;18066;52.106;5.534;2022-12-07T06:01:46;4.00;99.90
18297;DHT22;18066;52.106;5.534;2022-12-07T06:04:13;4.00;99.90
18297;DHT22;18066;52.106;5.534;2022-12-07T06:06:40;3.90;99.90
18297;DHT22;18066;52.106;5.534;2022-12-07T06:09:07;3.90;99.90
18297;DHT22;18066;52.106;5.534;2022-12-07T06:11:33;3.80;99.90
18297;DHT22;18066;52.106;5.534;2022-12-07T06:14:18;3.80;99.90
18297;DHT22;18066;52.106;5.534;2022-12-07T06:16:46;3.80;99.90
18297;DHT22;18066;52.106;5.534;2022-12-07T06:19:13;3.70;99.90
18297;DHT22;18066;52.106;5.534;2022-12-07T06:21:40;3.70;99.90
18297;DHT22;18066;52.106;5.534;2022-12-07T06:24:07;3.70;99.90
18297;DHT22;18066;52.106;5.534;2022-12-07T06:26:33;3.70;99.90
18297;DHT22;18066;52.106;5.534;2022-12-07T06:29:00;3.70;99.90
18297;DHT22;18066;52.106;5.534;2022-12-07T06:31:27;3.70;99.90
18297;DHT22;18066;52.106;5.534;2022-12-07T06:33:58;3.70;99.90
18297;DHT22;18066;52.106;5.534;2022-12-07T06:36:25;3.70;99.90
18297;DHT22;18066;52.106;5.534;2022-12-07T06:38:52;3.70;99.90
18297;DHT22;18066;52.106;5.534;2022-12-07T06:41:19;3.70;99.90
18297;DHT22;18066;52.106;5.534;2022-12-07T06:43:45;3.70;99.90
18297;DHT22;18066;52.106;5.534;2022-12-07T06:46:12;3.70;99.90
18297;DHT22;18066;52.106;5.534;2022-12-07T06:48:39;3.70;99.90
18297;DHT22;18066;52.106;5.534;2022-12-07T06:51:07;3.90;99.90
18297;DHT22;18066;52.106;5.534;2022-12-07T06:53:35;3.70;99.90
18297;DHT22;18066;52.106;5.534;2022-12-07T06:56:01;3.80;99.90
18297;DHT22;18066;52.106;5.534;2022-12-07T06:58:28;3.80;99.90
18297;DHT22;18066;52.106;5.534;2022-12-07T07:00:55;3.90;99.90
18297;DHT22;18066;52.106;5.534;2022-12-07T07:03:22;3.80;99.90
18297;DHT22;18066;52.106;5.534;2022-12-07T07:05:49;3.80;99.90
18297;DHT22;18066;52.106;5.534;2022-12-07T07:08:17;3.80;99.90
18297;DHT22;18066;52.106;5.534;2022-12-07T07:10:44;3.70;99.90
18297;DHT22;18066;52.106;5.534;2022-12-07T07:13:10;3.60;99.90
18297;DHT22;18066;52.106;5.534;2022-12-07T07:15:37;3.60;99.90
18297;DHT22;18066;52.106;5.534;2022-12-07T07:18:04;3.50;99.90
18297;DHT22;18066;52.106;5.534;2022-12-07T07:20:31;3.50;99.90
18297;DHT22;18066;52.106;5.534;2022-12-07T07:22:58;3.40;99.90
18297;DHT22;18066;52.106;5.534;2022-12-07T07:25:26;3.40;99.90
18297;DHT22;18066;52.106;5.534;2022-12-07T07:27:53;3.40;99.90
18297;DHT22;18066;52.106;5.534;2022-12-07T07:30:20;3.40;99.90
18297;DHT22;18066;52.106;5.534;2022-12-07T07:32:47;3.40;99.90
18297;DHT22;18066;52.106;5.534;2022-12-07T07:35:14;3.50;99.90
18297;DHT22;18066;52.106;5.534;2022-12-07T07:37:41;3.50;99.90
18297;DHT22;18066;52.106;5.534;2022-12-07T07:40:09;3.40;99.90
18297;DHT22;18066;52.106;5.534;2022-12-07T07:42:37;3.40;99.90
18297;DHT22;18066;52.106;5.534;2022-12-07T07:45:05;3.40;99.90
18297;DHT22;18066;52.106;5.534;2022-12-07T07:47:32;3.40;99.90
18297;DHT22;18066;52.106;5.534;2022-12-07T07:49:58;3.40;99.90
18297;DHT22;18066;52.106;5.534;2022-12-07T07:52:26;3.30;99.90
18297;DHT22;18066;52.106;5.534;2022-12-07T07:54:53;3.30;99.90
18297;DHT22;18066;52.106;5.534;2022-12-07T07:57:20;3.30;99.90
18297;DHT22;18066;52.106;5.534;2022-12-07T07:59:48;3.30;99.90
18297;DHT22;18066;52.106;5.534;2022-12-07T08:02:16;3.30;99.90
18297;DHT22;18066;52.106;5.534;2022-12-07T08:04:44;3.40;99.90
18297;DHT22;18066;52.106;5.534;2022-12-07T08:07:11;3.50;99.90
18297;DHT22;18066;52.106;5.534;2022-12-07T08:09:38;3.60;99.90
18297;DHT22;18066;52.106;5.534;2022-12-07T08:12:05;3.60;99.90
18297;DHT22;18066;52.106;5.534;2022-12-07T08:14:33;3.70;99.90
18297;DHT22;18066;52.106;5.534;2022-12-07T08:17:01;3.70;99.90
18297;DHT22;18066;52.106;5.534;2022-12-07T08:19:28;3.80;99.90
18297;DHT22;18066;52.106;5.534;2022-12-07T08:21:55;3.80;99.90
18297;DHT22;18066;52.106;5.534;2022-12-07T08:24:22;3.80;99.90
18297;DHT22;18066;52.106;5.534;2022-12-07T08:26:50;3.90;99.90
18297;DHT22;18066;52.106;5.534;2022-12-07T08:29:17;3.90;99.90
18297;DHT22;18066;52.106;5.534;2022-12-07T08:31:45;3.90;99.90
18297;DHT22;18066;52.106;5.534;2022-12-07T08:34:14;4.00;99.90
18297;DHT22;18066;52.106;5.534;2022-12-07T08:36:41;4.10;99.90
18297;DHT22;18066;52.106;5.534;2022-12-07T08:39:07;4.10;99.90
18297;DHT22;18066;52.106;5.534;2022-12-07T08:41:34;4.10;99.90
18297;DHT22;18066;52.106;5.534;2022-12-07T08:44:01;4.20;99.90
18297;DHT22;18066;52.106;5.534;2022-12-07T08:46:31;4.20;99.90
18297;DHT22;18066;52.106;5.534;2022-12-07T08:49:04;4.30;99.90
18297;DHT22;18066;52.106;5.534;2022-12-07T08:51:33;4.30;99.90
18297;DHT22;18066;52.106;5.534;2022-12-07T08:54:02;4.40;99.90
18297;DHT22;18066;52.106;5.534;2022-12-07T08:56:30;4.50;99.90
18297;DHT22;18066;52.106;5.534;2022-12-07T08:58:58;4.50;99.90
18297;DHT22;18066;52.106;5.534;2022-12-07T09:01:25;4.50;99.90
18297;DHT22;18066;52.106;5.534;2022-12-07T09:03:52;4.50;99.90
18297;DHT22;18066;52.106;5.534;2022-12-07T09:06:19;4.60;99.90
18297;DHT22;18066;52.106;5.534;2022-12-07T09:08:51;4.50;99.90
18297;DHT22;18066;52.106;5.534;2022-12-07T09:11:19;4.50;99.90
18297;DHT22;18066;52.106;5.534;2022-12-07T09:13:45;4.50;99.90
18297;DHT22;18066;52.106;5.534;2022-12-07T09:16:13;4.50;99.90
18297;DHT22;18066;52.106;5.534;2022-12-07T09:18:40;4.40;99.90
18297;DHT22;18066;52.106;5.534;2022-12-07T09:21:07;4.40;99.90
18297;DHT22;18066;52.106;5.534;2022-12-07T09:23:34;4.40;99.90
18297;DHT22;18066;52.106;5.534;2022-12-07T09:26:03;4.40;99.90
18297;DHT22;18066;52.106;5.534;2022-12-07T09:28:31;4.50;99.90
18297;DHT22;18066;52.106;5.534;2022-12-07T09:30:57;4.50;99.90
18297;DHT22;18066;52.106;5.534;2022-12-07T09:33:25;4.70;99.90
18297;DHT22;18066;52.106;5.534;2022-12-07T09:35:52;4.80;99.90
18297;DHT22;18066;52.106;5.534;2022-12-07T09:38:19;4.90;99.90
18297;DHT22;18066;52.106;5.534;2022-12-07T09:40:47;5.10;99.90
18297;DHT22;18066;52.106;5.534;2022-12-07T09:43:18;5.20;99.90
18297;DHT22;18066;52.106;5.534;2022-12-07T09:45:46;5.20;99.90
18297;DHT22;18066;52.106;5.534;2022-12-07T09:48:17;5.30;99.90
18297;DHT22;18066;52.106;5.534;2022-12-07T09:50:46;5.30;99.90
18297;DHT22;18066;52.106;5.534;2022-12-07T09:53:17;5.20;99.90
18297;DHT22;18066;52.106;5.534;2022-12-07T09:55:45;5.20;99.90
18297;DHT22;18066;52.106;5.534;2022-12-07T09:58:19;5.20;99.90
18297;DHT22;18066;52.106;5.534;2022-12-07T10:00:47;5.20;99.90
18297;DHT22;18066;52.106;5.534;2022-12-07T10:03:14;5.50;99.90
18297;DHT22;18066;52.106;5.534;2022-12-07T10:05:43;5.30;99.90
18297;DHT22;18066;52.106;5.534;2022-12-07T10:08:12;5.20;99.90
18297;DHT22;18066;52.106;5.534;2022-12-07T10:10:41;5.50;99.90
18297;DHT22;18066;52.106;5.534;2022-12-07T10:13:09;5.50;99.90
18297;DHT22;18066;52.106;5.534;2022-12-07T10:15:47;5.40;99.90
18297;DHT22;18066;52.106;5.534;2022-12-07T10:18:21;5.40;99.90
18297;DHT22;18066;52.106;5.534;2022-12-07T10:21:04;5.30;99.90
18297;DHT22;18066;52.106;5.534;2022-12-07T10:23:33;5.20;99.90
18297;DHT22;18066;52.106;5.534;2022-12-07T10:26:20;5.30;99.90
18297;DHT22;18066;52.106;5.534;2022-12-07T10:28:47;5.30;99.90
18297;DHT22;18066;52.106;5.534;2022-12-07T10:31:18;5.40;99.90
18297;DHT22;18066;52.106;5.534;2022-12-07T10:33:50;5.50;99.90
18297;DHT22;18066;52.106;5.534;2022-12-07T10:36:21;5.70;99.90
18297;DHT22;18066;52.106;5.534;2022-12-07T10:38:50;5.70;99.90
18297;DHT22;18066;52.106;5.534;2022-12-07T10:41:17;5.70;99.90
18297;DHT22;18066;52.106;5.534;2022-12-07T10:43:49;5.70;99.90
18297;DHT22;18066;52.106;5.534;2022-12-07T10:50:02;5.60;99.90
18297;DHT22;18066;52.106;5.534;2022-12-07T10:52:40;5.60;99.90
18297;DHT22;18066;52.106;5.534;2022-12-07T10:55:16;5.80;99.90
18297;DHT22;18066;52.106;5.534;2022-12-07T10:57:56;5.90;99.90
18297;DHT22;18066;52.106;5.534;2022-12-07T11:00:30;5.90;99.90
18297;DHT22;18066;52.106;5.534;2022-12-07T11:03:27;6.00;99.90
18297;DHT22;18066;52.106;5.534;2022-12-07T11:06:06;6.10;99.90
18297;DHT22;18066;52.106;5.534;2022-12-07T11:08:51;6.20;99.90
18297;DHT22;18066;52.106;5.534;2022-12-07T11:11:27;6.20;99.90
18297;DHT22;18066;52.106;5.534;2022-12-07T11:14:03;6.30;99.90
18297;DHT22;18066;52.106;5.534;2022-12-07T11:16:45;6.30;99.90
18297;DHT22;18066;52.106;5.534;2022-12-07T11:19:33;6.70;99.90
18297;DHT22;18066;52.106;5.534;2022-12-07T11:22:06;6.60;99.90
18297;DHT22;18066;52.106;5.534;2022-12-07T11:24:42;6.70;99.90
18297;DHT22;18066;52.106;5.534;2022-12-07T11:27:19;6.40;99.90
18297;DHT22;18066;52.106;5.534;2022-12-07T11:30:03;6.60;99.90
18297;DHT22;18066;52.106;5.534;2022-12-07T11:35:36;6.50;99.90
18297;DHT22;18066;52.106;5.534;2022-12-07T11:38:10;6.30;99.90
18297;DHT22;18066;52.106;5.534;2022-12-07T11:40:38;6.30;99.90
18297;DHT22;18066;52.106;5.534;2022-12-07T11:43:13;6.30;99.90
18297;DHT22;18066;52.106;5.534;2022-12-07T11:45:42;6.20;99.90
18297;DHT22;18066;52.106;5.534;2022-12-07T11:48:15;6.00;99.90
18297;DHT22;18066;52.106;5.534;2022-12-07T11:50:47;6.00;99.90
18297;DHT22;18066;52.106;5.534;2022-12-07T11:53:18;6.00;99.90
18297;DHT22;18066;52.106;5.534;2022-12-07T11:55:50;6.10;99.90
18297;DHT22;18066;52.106;5.534;2022-12-07T11:58:29;6.30;99.90
18297;DHT22;18066;52.106;5.534;2022-12-07T12:01:12;6.60;99.90
18297;DHT22;18066;52.106;5.534;2022-12-07T12:03:44;6.70;99.90
18297;DHT22;18066;52.106;5.534;2022-12-07T12:06:13;6.80;99.90
18297;DHT22;18066;52.106;5.534;2022-12-07T12:08:43;6.50;99.90
18297;DHT22;18066;52.106;5.534;2022-12-07T12:11:26;6.60;99.90
18297;DHT22;18066;52.106;5.534;2022-12-07T12:14:18;6.70;99.90
18297;DHT22;18066;52.106;5.534;2022-12-07T12:22:32;6.70;99.90
18297;DHT22;18066;52.106;5.534;2022-12-07T12:25:03;6.70;99.90
18297;DHT22;18066;52.106;5.534;2022-12-07T12:27:32;6.80;99.90
18297;DHT22;18066;52.106;5.534;2022-12-07T12:30:02;6.80;99.90
18297;DHT22;18066;52.106;5.534;2022-12-07T12:32:37;6.90;99.90
18297;DHT22;18066;52.106;5.534;2022-12-07T12:35:28;6.90;99.90
18297;DHT22;18066;52.106;5.534;2022-12-07T12:38:24;6.90;99.90
18297;DHT22;18066;52.106;5.534;2022-12-07T12:40:53;6.90;99.90
18297;DHT22;18066;52.106;5.534;2022-12-07T12:43:46;6.80;99.90
18297;DHT22;18066;52.106;5.534;2022-12-07T12:46:45;6.80;99.90
18297;DHT22;18066;52.106;5.534;2022-12-07T12:49:38;6.90;99.90
18297;DHT22;18066;52.106;5.534;2022-12-07T12:55:19;7.20;99.90
18297;DHT22;18066;52.106;5.534;2022-12-07T13:03:55;7.40;99.90
18297;DHT22;18066;52.106;5.534;2022-12-07T13:06:35;7.40;99.90
18297;DHT22;18066;52.106;5.534;2022-12-07T13:09:04;7.30;99.90
18297;DHT22;18066;52.106;5.534;2022-12-07T13:11:35;7.30;99.90
18297;DHT22;18066;52.106;5.534;2022-12-07T13:14:39;7.20;99.90
18297;DHT22;18066;52.106;5.534;2022-12-07T13:17:08;7.20;99.90
18297;DHT22;18066;52.106;5.534;2022-12-07T13:19:56;7.10;99.90
18297;DHT22;18066;52.106;5.534;2022-12-07T13:22:52;7.00;99.90
18297;DHT22;18066;52.106;5.534;2022-12-07T13:25:31;6.80;99.90
18297;DHT22;18066;52.106;5.534;2022-12-07T13:28:09;6.70;99.90
18297;DHT22;18066;52.106;5.534;2022-12-07T13:30:46;6.60;99.90
18297;DHT22;18066;52.106;5.534;2022-12-07T13:33:14;6.50;99.90
18297;DHT22;18066;52.106;5.534;2022-12-07T13:35:43;6.20;99.90
18297;DHT22;18066;52.106;5.534;2022-12-07T13:38:22;6.10;99.90
18297;DHT22;18066;52.106;5.534;2022-12-07T13:41:04;6.10;99.90
18297;DHT22;18066;52.106;5.534;2022-12-07T13:43:42;5.90;99.90
18297;DHT22;18066;52.106;5.534;2022-12-07T13:46:11;5.90;99.90
18297;DHT22;18066;52.106;5.534;2022-12-07T13:48:45;6.10;99.90
18297;DHT22;18066;52.106;5.534;2022-12-07T13:51:18;6.10;99.90
18297;DHT22;18066;52.106;5.534;2022-12-07T13:53:49;6.00;99.90
18297;DHT22;18066;52.106;5.534;2022-12-07T13:56:17;6.10;99.90
18297;DHT22;18066;52.106;5.534;2022-12-07T13:58:45;6.20;99.90
18297;DHT22;18066;52.106;5.534;2022-12-07T14:01:12;6.30;99.90
18297;DHT22;18066;52.106;5.534;2022-12-07T14:03:39;6.30;99.90
18297;DHT22;18066;52.106;5.534;2022-12-07T14:06:22;6.30;99.90
18297;DHT22;18066;52.106;5.534;2022-12-07T14:09:07;6.30;99.90
18297;DHT22;18066;52.106;5.534;2022-12-07T14:11:34;6.30;99.90
18297;DHT22;18066;52.106;5.534;2022-12-07T14:14:04;6.30;99.90
18297;DHT22;18066;52.106;5.534;2022-12-07T14:16:32;6.30;99.90
18297;DHT22;18066;52.106;5.534;2022-12-07T14:19:02;6.40;99.90
18297;DHT22;18066;52.106;5.534;2022-12-07T14:21:32;6.60;99.90
18297;DHT22;18066;52.106;5.534;2022-12-07T14:24:11;6.70;99.90
18297;DHT22;18066;52.106;5.534;2022-12-07T14:26:38;6.70;99.90
18297;DHT22;18066;52.106;5.534;2022-12-07T14:29:30;6.80;99.90
18297;DHT22;18066;52.106;5.534;2022-12-07T14:34:27;7.20;99.90
18297;DHT22;18066;52.106;5.534;2022-12-07T14:36:53;7.20;99.90
18297;DHT22;18066;52.106;5.534;2022-12-07T14:39:20;7.30;99.90
18297;DHT22;18066;52.106;5.534;2022-12-07T14:41:47;7.40;99.90
18297;DHT22;18066;52.106;5.534;2022-12-07T14:44:17;7.30;99.90
18297;DHT22;18066;52.106;5.534;2022-12-07T14:46:45;7.30;99.90
18297;DHT22;18066;52.106;5.534;2022-12-07T14:49:13;7.30;99.90
18297;DHT22;18066;52.106;5.534;2022-12-07T14:51:40;7.40;99.90
18297;DHT22;18066;52.106;5.534;2022-12-07T14:54:15;7.40;99.90
18297;DHT22;18066;52.106;5.534;2022-12-07T14:56:43;7.30;99.90
18297;DHT22;18066;52.106;5.534;2022-12-07T14:59:11;7.40;99.90
18297;DHT22;18066;52.106;5.534;2022-12-07T15:01:38;7.40;99.90
18297;DHT22;18066;52.106;5.534;2022-12-07T15:04:06;7.50;99.90
18297;DHT22;18066;52.106;5.534;2022-12-07T15:06:33;7.40;99.90
18297;DHT22;18066;52.106;5.534;2022-12-07T15:09:00;7.50;99.90
18297;DHT22;18066;52.106;5.534;2022-12-07T15:11:27;7.50;99.90
18297;DHT22;18066;52.106;5.534;2022-12-07T15:13:54;7.30;99.90
18297;DHT22;18066;52.106;5.534;2022-12-07T15:16:38;7.00;99.90
18297;DHT22;18066;52.106;5.534;2022-12-07T15:19:11;6.90;99.90
18297;DHT22;18066;52.106;5.534;2022-12-07T15:21:39;6.70;99.90
18297;DHT22;18066;52.106;5.534;2022-12-07T15:24:08;6.50;99.90
18297;DHT22;18066;52.106;5.534;2022-12-07T15:26:35;6.40;99.90
18297;DHT22;18066;52.106;5.534;2022-12-07T15:29:02;6.30;99.90
18297;DHT22;18066;52.106;5.534;2022-12-07T15:31:29;6.50;99.90
18297;DHT22;18066;52.106;5.534;2022-12-07T15:33:56;6.50;99.90
18297;DHT22;18066;52.106;5.534;2022-12-07T15:36:27;6.30;99.90
18297;DHT22;18066;52.106;5.534;2022-12-07T15:38:54;6.10;99.90
18297;DHT22;18066;52.106;5.534;2022-12-07T15:41:24;6.00;99.90
18297;DHT22;18066;52.106;5.534;2022-12-07T15:43:51;6.10;99.90
18297;DHT22;18066;52.106;5.534;2022-12-07T15:46:37;6.00;99.90
18297;DHT22;18066;52.106;5.534;2022-12-07T15:49:06;5.90;99.90
18297;DHT22;18066;52.106;5.534;2022-12-07T15:51:34;5.80;99.90
18297;DHT22;18066;52.106;5.534;2022-12-07T15:54:01;5.70;99.90
18297;DHT22;18066;52.106;5.534;2022-12-07T15:56:28;5.60;99.90
18297;DHT22;18066;52.106;5.534;2022-12-07T15:58:56;5.50;99.90
18297;DHT22;18066;52.106;5.534;2022-12-07T16:01:23;5.50;99.90
18297;DHT22;18066;52.106;5.534;2022-12-07T16:03:49;5.50;99.90
18297;DHT22;18066;52.106;5.534;2022-12-07T16:06:17;5.40;99.90
18297;DHT22;18066;52.106;5.534;2022-12-07T16:08:46;5.50;99.90
18297;DHT22;18066;52.106;5.534;2022-12-07T16:11:13;5.40;99.90
18297;DHT22;18066;52.106;5.534;2022-12-07T16:13:40;5.40;99.90
18297;DHT22;18066;52.106;5.534;2022-12-07T16:16:09;5.40;99.90
18297;DHT22;18066;52.106;5.534;2022-12-07T16:18:36;5.40;99.90
18297;DHT22;18066;52.106;5.534;2022-12-07T16:21:03;5.40;99.90
18297;DHT22;18066;52.106;5.534;2022-12-07T16:23:31;5.40;99.90
18297;DHT22;18066;52.106;5.534;2022-12-07T16:26:05;5.40;99.90
18297;DHT22;18066;52.106;5.534;2022-12-07T16:28:32;5.40;99.90
18297;DHT22;18066;52.106;5.534;2022-12-07T16:31:01;5.50;99.90
18297;DHT22;18066;52.106;5.534;2022-12-07T16:33:28;5.60;99.90